createdAt,value
2023-01-10T00:00:35.163Z,2.30
2023-01-10T00:03:05.697Z,2.10
2023-01-10T00:05:32.849Z,3.50
2023-01-10T00:08:02.391Z,2.00
2023-01-10T00:10:29.739Z,2.97
2023-01-10T00:13:15.584Z,2.53
2023-01-10T00:15:42.916Z,2.03
2023-01-10T00:18:10.144Z,3.23
2023-01-10T00:20:37.507Z,2.47
2023-01-10T00:23:04.907Z,4.00
2023-01-10T00:25:34.474Z,2.47
2023-01-10T00:28:07.874Z,2.70
2023-01-10T00:30:35.367Z,2.67
2023-01-10T00:33:04.025Z,1.90
2023-01-10T00:35:31.225Z,4.73
2023-01-10T00:38:07.771Z,1.83
2023-01-10T00:40:35.221Z,1.80
2023-01-10T00:43:20.907Z,2.20
2023-01-10T00:45:48.246Z,2.23
2023-01-10T00:48:15.477Z,2.10
2023-01-10T00:50:42.785Z,1.90
2023-01-10T00:53:10.053Z,2.27
2023-01-10T00:55:37.257Z,2.57
2023-01-10T00:58:04.778Z,2.20
2023-01-10T01:00:32.021Z,2.93
2023-01-10T01:02:59.869Z,2.43
2023-01-10T01:05:27.444Z,2.60
2023-01-10T01:07:54.633Z,2.67
2023-01-10T01:10:27.924Z,2.60
2023-01-10T01:12:58.260Z,2.53
2023-01-10T01:15:25.844Z,2.77
2023-01-10T01:17:53.410Z,2.93
2023-01-10T01:20:22.005Z,3.13
2023-01-10T01:22:49.219Z,2.60
2023-01-10T01:25:16.597Z,2.80
2023-01-10T01:27:43.853Z,2.53
2023-01-10T01:30:11.687Z,2.43
2023-01-10T01:32:38.834Z,2.50
2023-01-10T01:35:06.848Z,3.93
2023-01-10T01:37:34.058Z,2.93
2023-01-10T01:40:01.204Z,4.07
2023-01-10T01:42:33.208Z,2.90
2023-01-10T01:45:24.256Z,3.13
2023-01-10T01:47:58.671Z,2.40
2023-01-10T01:50:41.736Z,3.23
2023-01-10T01:53:30.076Z,3.20
2023-01-10T01:56:00.118Z,2.80
2023-01-10T01:58:40.037Z,4.73
2023-01-10T02:01:07.424Z,2.90
2023-01-10T02:03:34.643Z,2.97
2023-01-10T02:06:01.927Z,3.20
2023-01-10T02:08:29.075Z,2.57
2023-01-10T02:11:11.714Z,2.67
2023-01-10T02:13:41.422Z,3.30
2023-01-10T02:16:09.567Z,2.90
2023-01-10T02:18:37.496Z,3.10
2023-01-10T02:21:46.143Z,3.10
2023-01-10T02:24:31.135Z,3.40
2023-01-10T02:27:11.603Z,3.60
2023-01-10T02:29:46.229Z,4.10
2023-01-10T02:32:43.713Z,3.30
2023-01-10T02:35:24.673Z,3.37
2023-01-10T02:37:57.947Z,3.57
2023-01-10T02:40:40.313Z,2.40
2023-01-10T02:43:29.532Z,3.57
2023-01-10T02:46:09.441Z,4.60
2023-01-10T02:48:36.610Z,2.60
2023-01-10T02:51:19.310Z,2.43
2023-01-10T02:53:55.829Z,2.47
2023-01-10T02:56:35.032Z,2.93
2023-01-10T02:59:37.116Z,3.10
2023-01-10T03:02:36.363Z,4.03
2023-01-10T03:05:27.855Z,3.47
2023-01-10T03:08:13.449Z,4.27
2023-01-10T03:10:48.223Z,2.77
2023-01-10T03:13:39.791Z,3.70
2023-01-10T03:16:08.746Z,9.87
2023-01-10T03:18:46.282Z,4.43
2023-01-10T03:21:13.636Z,3.27
2023-01-10T03:23:40.749Z,5.27
2023-01-10T03:26:08.401Z,4.20
2023-01-10T03:28:46.141Z,4.00
2023-01-10T03:31:16.688Z,5.47
2023-01-10T03:33:43.885Z,8.80
2023-01-10T03:36:23.270Z,4.90
2023-01-10T03:38:53.201Z,6.10
2023-01-10T03:41:36.568Z,5.73
2023-01-10T03:44:34.626Z,4.73
2023-01-10T03:47:21.652Z,4.27
2023-01-10T03:49:51.130Z,7.10
2023-01-10T03:52:18.329Z,5.67
2023-01-10T03:54:45.557Z,7.90
2023-01-10T03:57:17.850Z,7.37
2023-01-10T03:59:45.371Z,4.23
2023-01-10T04:02:12.727Z,2.47
2023-01-10T04:04:40.142Z,4.53
2023-01-10T04:07:07.431Z,5.27
2023-01-10T04:09:34.427Z,2.97
2023-01-10T04:12:01.742Z,6.10
2023-01-10T04:14:29.060Z,9.17
2023-01-10T04:16:56.352Z,6.60
2023-01-10T04:19:23.500Z,2.50
2023-01-10T04:21:50.636Z,7.57
2023-01-10T04:24:17.955Z,2.70
2023-01-10T04:26:45.163Z,2.20
2023-01-10T04:29:12.282Z,4.63
2023-01-10T04:31:40.261Z,6.27
2023-01-10T04:34:10.605Z,3.30
2023-01-10T04:36:37.745Z,1.97
2023-01-10T04:39:05.284Z,4.00
2023-01-10T04:41:32.442Z,4.23
2023-01-10T04:43:59.700Z,7.80
2023-01-10T04:46:26.927Z,2.57
2023-01-10T04:48:54.088Z,5.83
2023-01-10T04:51:21.483Z,9.13
2023-01-10T04:53:48.636Z,9.90
2023-01-10T04:56:18.661Z,5.23
2023-01-10T04:58:46.068Z,2.73
2023-01-10T05:01:15.824Z,4.63
2023-01-10T05:03:43.066Z,4.77
2023-01-10T05:06:10.192Z,2.67
2023-01-10T05:08:37.489Z,4.57
2023-01-10T05:11:04.656Z,6.67
2023-01-10T05:13:31.785Z,7.43
2023-01-10T05:15:58.936Z,5.63
2023-01-10T05:18:27.061Z,2.00
2023-01-10T05:20:54.539Z,8.47
2023-01-10T05:23:21.951Z,4.73
2023-01-10T05:25:49.063Z,6.30
2023-01-10T05:28:16.236Z,3.73
2023-01-10T05:30:43.554Z,5.87
2023-01-10T05:33:10.583Z,3.47
2023-01-10T05:35:38.057Z,9.83
2023-01-10T05:38:05.311Z,4.20
2023-01-10T05:40:32.553Z,4.60
2023-01-10T05:42:59.878Z,5.20
2023-01-10T05:45:27.139Z,8.20
2023-01-10T05:47:54.296Z,3.73
2023-01-10T05:50:21.354Z,3.27
2023-01-10T05:52:48.478Z,4.47
2023-01-10T05:55:15.587Z,5.53
2023-01-10T05:57:42.674Z,3.37
2023-01-10T06:00:10.684Z,3.97
2023-01-10T06:02:37.812Z,4.67
2023-01-10T06:05:05.369Z,4.60
2023-01-10T06:07:32.354Z,3.50
2023-01-10T06:09:59.515Z,7.80
2023-01-10T06:12:26.739Z,3.43
2023-01-10T06:14:53.763Z,6.93
2023-01-10T06:17:20.896Z,4.80
2023-01-10T06:19:48.114Z,4.77
2023-01-10T06:22:15.134Z,3.00
2023-01-10T06:24:42.648Z,4.50
2023-01-10T06:27:10.994Z,2.90
2023-01-10T06:29:37.946Z,3.07
2023-01-10T06:32:05.159Z,3.27
2023-01-10T06:34:32.406Z,3.87
2023-01-10T06:36:59.611Z,6.03
2023-01-10T06:39:26.639Z,2.80
2023-01-10T06:41:53.911Z,2.73
2023-01-10T06:44:20.949Z,4.27
2023-01-10T06:46:48.017Z,3.60
2023-01-10T06:49:14.985Z,3.93
2023-01-10T06:51:42.308Z,3.83
2023-01-10T06:54:09.271Z,5.27
2023-01-10T06:56:36.340Z,5.10
2023-01-10T06:59:03.543Z,3.20
2023-01-10T07:01:31.083Z,2.97
2023-01-10T07:03:58.510Z,5.63
2023-01-10T07:06:26.141Z,4.13
2023-01-10T07:08:55.123Z,3.47
2023-01-10T07:11:22.354Z,3.03
2023-01-10T07:13:49.312Z,4.63
2023-01-10T07:16:16.504Z,2.47
2023-01-10T07:18:43.752Z,4.43
2023-01-10T07:21:11.200Z,3.17
2023-01-10T07:23:38.966Z,4.97
2023-01-10T07:26:07.803Z,7.93
2023-01-10T07:28:35.267Z,6.80
2023-01-10T07:31:03.385Z,4.70
2023-01-10T07:33:31.577Z,4.27
2023-01-10T07:36:00.020Z,9.27
2023-01-10T07:38:27.204Z,5.60
2023-01-10T07:40:54.410Z,5.17
2023-01-10T07:43:21.615Z,8.13
2023-01-10T07:45:48.830Z,6.73
2023-01-10T07:48:16.277Z,9.87
2023-01-10T07:50:43.589Z,5.90
2023-01-10T07:53:10.930Z,3.50
2023-01-10T07:55:40.043Z,3.50
2023-01-10T07:58:08.272Z,5.03
2023-01-10T08:00:35.567Z,5.40
2023-01-10T08:03:02.908Z,5.63
2023-01-10T08:05:30.656Z,6.27
2023-01-10T08:08:00.476Z,6.43
2023-01-10T08:10:27.894Z,7.20
2023-01-10T08:12:55.596Z,6.50
2023-01-10T08:15:23.803Z,5.83
2023-01-10T08:17:51.081Z,4.00
2023-01-10T08:20:18.415Z,4.17
2023-01-10T08:22:45.931Z,4.60
2023-01-10T08:25:13.145Z,5.47
2023-01-10T08:27:40.495Z,4.83
2023-01-10T08:30:08.275Z,3.50
2023-01-10T08:32:35.707Z,3.23
2023-01-10T08:35:03.040Z,2.73
2023-01-10T08:37:30.307Z,2.47
2023-01-10T08:39:57.529Z,3.57
2023-01-10T08:42:24.550Z,2.90
2023-01-10T08:44:51.552Z,2.37
2023-01-10T08:47:18.634Z,3.40
2023-01-10T08:49:47.189Z,4.03
2023-01-10T08:52:14.375Z,2.23
2023-01-10T08:54:41.348Z,4.00
2023-01-10T08:57:08.642Z,2.40
2023-01-10T08:59:35.584Z,2.63
2023-01-10T09:02:04.775Z,2.87
2023-01-10T09:04:33.043Z,2.20
2023-01-10T09:07:00.409Z,4.90
2023-01-10T09:09:27.668Z,2.40
2023-01-10T09:11:54.842Z,2.00
2023-01-10T09:14:22.332Z,2.70
2023-01-10T09:16:51.859Z,3.20
2023-01-10T09:19:19.398Z,2.73
2023-01-10T09:21:46.353Z,2.30
2023-01-10T09:24:13.790Z,2.37
2023-01-10T09:26:41.531Z,2.30
2023-01-10T09:29:08.801Z,2.90
2023-01-10T09:31:36.063Z,2.40
2023-01-10T09:34:03.042Z,3.60
2023-01-10T09:36:30.287Z,2.57
2023-01-10T09:38:57.296Z,2.80
2023-01-10T09:41:24.479Z,2.83
2023-01-10T09:44:16.434Z,3.27
2023-01-10T09:47:14.261Z,2.80
2023-01-10T09:49:51.228Z,2.77
2023-01-10T09:52:35.176Z,3.20
2023-01-10T09:55:16.738Z,4.00
2023-01-10T09:57:43.671Z,7.27
2023-01-10T10:00:22.977Z,3.60
2023-01-10T10:02:53.612Z,4.50
2023-01-10T10:05:27.348Z,5.00
2023-01-10T10:07:59.512Z,5.77
2023-01-10T10:10:35.242Z,3.63
2023-01-10T10:13:11.625Z,3.60
2023-01-10T10:15:49.852Z,4.70
2023-01-10T10:18:39.625Z,4.30
2023-01-10T10:21:26.848Z,4.30
2023-01-10T10:23:58.214Z,5.73
2023-01-10T10:26:32.814Z,3.30
2023-01-10T10:29:18.642Z,4.07
2023-01-10T10:32:04.311Z,4.93
2023-01-10T10:34:54.101Z,4.07
2023-01-10T10:37:25.920Z,4.00
2023-01-10T10:39:55.976Z,3.23
2023-01-10T10:42:22.959Z,3.10
2023-01-10T10:44:55.117Z,3.60
2023-01-10T10:47:23.966Z,4.23
2023-01-10T10:50:07.435Z,2.57
2023-01-10T10:52:35.505Z,3.10
2023-01-10T10:55:04.055Z,2.00
2023-01-10T10:57:32.264Z,2.93
2023-01-10T10:59:59.449Z,2.43
2023-01-10T11:02:33.950Z,2.80
2023-01-10T11:05:05.516Z,3.67
2023-01-10T11:07:37.025Z,2.43
2023-01-10T11:10:15.442Z,2.87
2023-01-10T11:12:45.353Z,4.00
2023-01-10T11:15:12.372Z,2.30
2023-01-10T11:17:41.563Z,3.50
2023-01-10T11:20:16.629Z,3.97
2023-01-10T11:22:51.771Z,3.13
2023-01-10T11:25:21.197Z,4.77
2023-01-10T11:27:50.554Z,2.53
2023-01-10T11:30:28.278Z,4.13
2023-01-10T11:33:01.120Z,2.50
2023-01-10T11:35:37.159Z,5.17
2023-01-10T11:38:19.931Z,2.87
2023-01-10T11:41:22.176Z,2.83
2023-01-10T11:43:49.294Z,3.23
2023-01-10T11:46:23.142Z,2.80
2023-01-10T11:49:05.512Z,3.27
2023-01-10T11:51:50.593Z,12.23
2023-01-10T11:54:26.069Z,12.77
2023-01-10T11:57:16.383Z,3.67
2023-01-10T12:00:03.036Z,9.17
2023-01-10T12:02:31.605Z,4.67
2023-01-10T12:04:59.950Z,4.07
2023-01-10T12:07:27.276Z,4.10
2023-01-10T12:10:01.753Z,3.50
2023-01-10T12:12:39.113Z,2.60
2023-01-10T12:15:37.303Z,3.70
2023-01-10T12:18:05.197Z,4.17
2023-01-10T12:20:34.129Z,5.27
2023-01-10T12:23:14.260Z,4.10
2023-01-10T12:25:42.323Z,5.33
2023-01-10T12:28:21.089Z,8.57
2023-01-10T12:30:51.300Z,4.93
2023-01-10T12:33:26.811Z,4.80
2023-01-10T12:36:15.849Z,4.43
2023-01-10T12:39:09.989Z,4.43
2023-01-10T12:42:18.775Z,6.93
2023-01-10T12:44:48.134Z,5.73
2023-01-10T12:47:18.913Z,4.73
2023-01-10T12:49:53.626Z,4.77
2023-01-10T12:52:46.135Z,6.50
2023-01-10T12:55:20.304Z,5.43
2023-01-10T12:57:54.343Z,4.70
2023-01-10T13:00:40.495Z,6.07
2023-01-10T13:03:22.158Z,4.53
2023-01-10T13:05:50.082Z,3.00
2023-01-10T13:08:19.184Z,3.63
2023-01-10T13:10:48.004Z,3.53
2023-01-10T13:13:23.129Z,4.83
2023-01-10T13:16:03.024Z,4.37
2023-01-10T13:18:31.341Z,6.57
2023-01-10T13:21:13.767Z,4.57
2023-01-10T13:23:49.775Z,4.83
2023-01-10T13:26:17.265Z,6.03
2023-01-10T13:29:00.597Z,4.70
2023-01-10T13:31:32.705Z,5.17
2023-01-10T13:34:08.454Z,3.13
2023-01-10T13:36:40.490Z,3.90
2023-01-10T13:39:19.790Z,3.43
2023-01-10T13:42:17.741Z,5.87
2023-01-10T13:45:10.535Z,5.47
2023-01-10T13:47:40.900Z,3.43
2023-01-10T13:50:29.108Z,6.27
2023-01-10T13:53:19.194Z,3.30
2023-01-10T13:55:55.761Z,5.70
2023-01-10T13:58:46.379Z,5.43
2023-01-10T14:01:45.418Z,8.10
2023-01-10T14:04:54.449Z,6.10
2023-01-10T14:07:29.004Z,4.03
2023-01-10T14:10:03.749Z,5.60
2023-01-10T14:12:40.552Z,4.87
2023-01-10T14:15:30.225Z,3.93
2023-01-10T14:17:59.371Z,4.70
2023-01-10T14:20:26.681Z,4.07
2023-01-10T14:23:19.952Z,3.73
2023-01-10T14:25:47.380Z,6.87
2023-01-10T14:28:26.938Z,5.43
2023-01-10T14:31:07.815Z,6.17
2023-01-10T14:33:36.044Z,5.20
2023-01-10T14:36:08.082Z,5.57
2023-01-10T14:38:36.059Z,6.10
2023-01-10T14:41:04.433Z,11.17
2023-01-10T14:43:43.662Z,9.00
2023-01-10T14:46:20.247Z,7.13
2023-01-10T14:48:51.222Z,11.03
2023-01-10T14:51:22.954Z,6.93
2023-01-10T14:54:01.740Z,6.27
2023-01-10T14:56:31.685Z,5.60
2023-01-10T14:58:59.083Z,5.07
2023-01-10T15:01:28.430Z,9.73
2023-01-10T15:03:57.280Z,6.00
2023-01-10T15:06:26.000Z,3.23
2023-01-10T15:09:00.676Z,6.20
2023-01-10T15:11:28.681Z,4.57
2023-01-10T15:14:00.716Z,3.40
2023-01-10T15:16:28.845Z,5.33
2023-01-10T15:18:57.029Z,3.27
2023-01-10T15:21:25.802Z,4.43
2023-01-10T15:23:53.259Z,6.67
2023-01-10T15:26:30.548Z,6.13
2023-01-10T15:29:12.977Z,7.97
2023-01-10T15:31:40.586Z,7.37
2023-01-10T15:34:11.862Z,8.30
2023-01-10T15:36:52.111Z,3.90
2023-01-10T15:39:21.558Z,7.17
2023-01-10T15:41:49.791Z,5.87
2023-01-10T15:44:37.259Z,5.33
2023-01-10T15:47:05.022Z,8.67
2023-01-10T15:49:32.328Z,8.23
2023-01-10T15:51:59.949Z,6.53
2023-01-10T15:54:31.284Z,4.80
2023-01-10T15:57:06.932Z,4.63
2023-01-10T15:59:41.659Z,5.50
2023-01-10T16:02:22.582Z,5.10
2023-01-10T16:04:55.204Z,9.13
2023-01-10T16:07:33.715Z,10.43
2023-01-10T16:10:13.541Z,12.90
2023-01-10T16:12:59.830Z,10.40
2023-01-10T16:15:31.627Z,16.43
2023-01-10T16:17:59.188Z,8.97
2023-01-10T16:20:37.052Z,11.97
2023-01-10T16:23:05.462Z,14.27
2023-01-10T16:25:34.592Z,17.03
2023-01-10T16:28:01.958Z,12.40
2023-01-10T16:30:35.623Z,12.50
2023-01-10T16:33:09.841Z,10.97
2023-01-10T16:35:37.070Z,10.73
2023-01-10T16:38:04.542Z,14.27
2023-01-10T16:40:37.802Z,14.23
2023-01-10T16:43:21.890Z,11.90
2023-01-10T16:45:52.035Z,13.87
2023-01-10T16:48:20.246Z,13.00
2023-01-10T16:50:48.278Z,8.87
2023-01-10T16:53:18.257Z,9.77
2023-01-10T16:55:50.571Z,26.83
2023-01-10T16:58:18.789Z,16.60
2023-01-10T17:00:47.781Z,15.43
2023-01-10T17:03:21.147Z,12.10
2023-01-10T17:05:48.564Z,14.63
2023-01-10T17:08:23.697Z,11.70
2023-01-10T17:10:56.741Z,7.47
2023-01-10T17:13:26.467Z,12.27
2023-01-10T17:15:53.775Z,10.20
2023-01-10T17:18:21.149Z,10.87
2023-01-10T17:20:49.243Z,16.10
2023-01-10T17:23:16.587Z,14.17
2023-01-10T17:25:45.066Z,14.97
2023-01-10T17:28:12.461Z,9.37
2023-01-10T17:30:40.873Z,12.50
2023-01-10T17:33:11.231Z,8.10
2023-01-10T17:35:41.840Z,9.77
2023-01-10T17:38:13.869Z,10.47
2023-01-10T17:40:47.953Z,10.27
2023-01-10T17:43:15.695Z,7.47
2023-01-10T17:45:44.145Z,14.17
2023-01-10T17:48:13.303Z,9.70
2023-01-10T17:50:40.484Z,12.07
2023-01-10T17:53:07.869Z,7.07
2023-01-10T17:55:35.234Z,7.67
2023-01-10T17:58:05.647Z,10.70
2023-01-10T18:00:32.913Z,6.40
2023-01-10T18:03:00.305Z,9.40
2023-01-10T18:05:27.740Z,15.17
2023-01-10T18:07:55.154Z,13.97
2023-01-10T18:10:22.571Z,19.63
2023-01-10T18:12:49.817Z,22.30
2023-01-10T18:15:17.074Z,14.73
2023-01-10T18:17:45.961Z,20.13
2023-01-10T18:20:13.353Z,17.93
2023-01-10T18:22:59.343Z,12.87
2023-01-10T18:25:26.691Z,13.97
2023-01-10T18:27:55.541Z,15.30
2023-01-10T18:30:23.482Z,13.20
2023-01-10T18:32:52.033Z,14.53
2023-01-10T18:35:19.669Z,10.63
2023-01-10T18:37:47.261Z,13.23
2023-01-10T18:40:14.934Z,11.00
2023-01-10T18:42:42.228Z,13.73
2023-01-10T18:45:10.066Z,12.00
2023-01-10T18:47:37.363Z,9.70
2023-01-10T18:50:05.467Z,8.57
2023-01-10T18:52:32.802Z,12.20
2023-01-10T18:55:02.285Z,9.37
2023-01-10T18:57:33.306Z,10.27
2023-01-10T19:00:01.034Z,8.23
2023-01-10T19:02:28.347Z,7.73
2023-01-10T19:04:55.752Z,8.17
2023-01-10T19:07:23.034Z,9.97
2023-01-10T19:09:50.432Z,10.93
2023-01-10T19:12:17.893Z,17.27
2023-01-10T19:14:45.574Z,7.90
2023-01-10T19:17:13.235Z,8.13
2023-01-10T19:19:40.604Z,9.60
2023-01-10T19:22:08.015Z,11.23
2023-01-10T19:24:38.101Z,10.63
2023-01-10T19:27:05.398Z,11.30
2023-01-10T19:29:32.820Z,10.13
2023-01-10T19:32:00.958Z,9.73
2023-01-10T19:34:28.344Z,12.37
2023-01-10T19:36:55.695Z,12.40
2023-01-10T19:39:23.090Z,12.83
2023-01-10T19:41:50.325Z,8.23
2023-01-10T19:44:17.809Z,12.10
2023-01-10T19:46:47.547Z,13.50
2023-01-10T19:49:18.000Z,10.63
2023-01-10T19:51:47.800Z,12.53
2023-01-10T19:54:15.199Z,8.13
2023-01-10T19:56:42.663Z,10.63
2023-01-10T19:59:10.490Z,13.83
2023-01-10T20:01:37.997Z,10.23
2023-01-10T20:04:06.940Z,10.27
2023-01-10T20:06:37.570Z,7.90
2023-01-10T20:09:05.512Z,10.80
2023-01-10T20:11:42.354Z,12.40
2023-01-10T20:14:15.898Z,11.80
2023-01-10T20:16:43.377Z,10.87
2023-01-10T20:19:12.466Z,11.53
2023-01-10T20:21:40.753Z,11.07
2023-01-10T20:24:18.855Z,11.67
2023-01-10T20:26:47.518Z,8.47
2023-01-10T20:29:15.364Z,8.23
2023-01-10T20:31:50.178Z,13.33
2023-01-10T20:34:17.945Z,8.13
2023-01-10T20:36:45.464Z,12.50
2023-01-10T20:39:13.467Z,10.53
2023-01-10T20:41:40.925Z,9.23
2023-01-10T20:44:08.269Z,10.10
2023-01-10T20:46:37.038Z,9.77
2023-01-10T20:49:04.401Z,12.43
2023-01-10T20:51:34.145Z,10.07
2023-01-10T20:54:01.436Z,7.13
2023-01-10T20:56:29.727Z,11.63
2023-01-10T20:58:57.213Z,6.03
2023-01-10T21:01:34.097Z,12.03
2023-01-10T21:04:01.896Z,13.57
2023-01-10T21:06:29.214Z,9.43
2023-01-10T21:08:56.533Z,10.57
2023-01-10T21:11:23.956Z,9.97
2023-01-10T21:13:51.303Z,19.00
2023-01-10T21:16:20.414Z,8.80
2023-01-10T21:18:47.827Z,13.83
2023-01-10T21:21:16.658Z,7.20
2023-01-10T21:23:44.069Z,12.73
2023-01-10T21:26:13.141Z,8.53
2023-01-10T21:28:46.935Z,12.93
2023-01-10T21:31:15.957Z,10.63
2023-01-10T21:33:43.315Z,12.13
2023-01-10T21:36:11.223Z,15.50
2023-01-10T21:38:40.789Z,19.53
2023-01-10T21:41:37.506Z,13.00
2023-01-10T21:44:05.460Z,17.90
2023-01-10T21:46:32.943Z,12.80
2023-01-10T21:49:01.933Z,13.03
2023-01-10T21:51:29.349Z,15.80
2023-01-10T21:53:56.722Z,12.67
2023-01-10T21:56:24.269Z,14.27
2023-01-10T21:58:52.572Z,14.93
2023-01-10T22:01:20.433Z,12.27
2023-01-10T22:03:47.794Z,14.50
2023-01-10T22:06:15.430Z,16.83
2023-01-10T22:08:42.774Z,12.20
2023-01-10T22:11:11.179Z,15.13
2023-01-10T22:13:38.837Z,15.70
2023-01-10T22:16:07.306Z,14.03
2023-01-10T22:18:35.053Z,10.73
2023-01-10T22:21:02.480Z,15.40
2023-01-10T22:23:30.647Z,13.37
2023-01-10T22:26:05.226Z,13.10
2023-01-10T22:28:32.698Z,12.90
2023-01-10T22:31:00.035Z,9.33
2023-01-10T22:33:32.139Z,10.23
2023-01-10T22:36:13.940Z,12.30
2023-01-10T22:38:42.272Z,14.37
2023-01-10T22:41:17.028Z,11.00
2023-01-10T22:43:44.662Z,20.43
2023-01-10T22:46:16.287Z,14.50
2023-01-10T22:48:44.083Z,11.93
2023-01-10T22:51:11.997Z,8.17
2023-01-10T22:53:39.511Z,9.57
2023-01-10T22:56:09.863Z,9.40
2023-01-10T22:58:37.881Z,7.43
2023-01-10T23:01:06.028Z,8.57
2023-01-10T23:03:33.766Z,7.40
2023-01-10T23:06:01.256Z,8.47
2023-01-10T23:08:28.660Z,8.00
2023-01-10T23:10:55.883Z,8.40
2023-01-10T23:13:23.488Z,6.17
2023-01-10T23:15:57.727Z,8.43
2023-01-10T23:18:26.052Z,5.37
2023-01-10T23:20:53.434Z,13.83
2023-01-10T23:23:20.822Z,4.97
2023-01-10T23:26:02.099Z,4.80
2023-01-10T23:28:39.165Z,8.27
2023-01-10T23:31:07.034Z,5.07
2023-01-10T23:33:34.361Z,4.47
2023-01-10T23:36:01.717Z,5.67
2023-01-10T23:38:29.086Z,5.30
2023-01-10T23:40:56.499Z,7.53
2023-01-10T23:43:23.874Z,6.30
2023-01-10T23:45:51.337Z,6.50
2023-01-10T23:48:19.097Z,4.33
2023-01-10T23:50:50.148Z,6.80
2023-01-10T23:53:18.235Z,10.17
2023-01-10T23:55:45.797Z,9.00
2023-01-10T23:58:13.101Z,5.47
